Impacts METAR Board
IDs:

KMIA - Miami Intl, FL, US

Updated at: 1300 UTC 07 Jul 2020
Potential Impact None Slight Moderate High
Time 07/01Z 07/02Z 07/03Z 07/04Z 07/05Z 07/06Z 07/07Z 07/08Z 07/09Z 07/10Z 07/11Z 07/12Z 07/13Z
Temp84 82 82 81 81 83 83 81 81 81 81 83 87
Dewpt74 75 75 75 76 75 75 76 76 76 76 77 78
Altim30.07 30.07 30.09 30.09 30.09 30.07 30.05 30.04 30.04 30.05 30.05 30.07 30.08
VIS10 10 10 10 10 10 10 10 10 10 10 10 10
CIG250 250 -- -- 250 -- 250 250 250 250 -- 250 250
CoverBKNBKNSCTSCTBKNSCTBKNBKNBKNBKNSCTBKNBKN
FltCatVFRVFRVFRVFRVFRVFRVFRVFRVFRVFRVFRVFRVFR
WX--------------------------
WDir003500350350360000000
WSpd0 0 3 0 3 3 3 0 0 0 0 0 0
WGst-- -- -- -- -- -- -- -- -- -- -- -- --
Raw hourly METARs
KMIA 070053Z 00000KT 10SM FEW150 BKN250 29/23 A3007 RMK AO2 SLP184 T02890233
KMIA 070153Z 00000KT 10SM FEW150 BKN250 28/24 A3007 RMK AO2 SLP184 T02780239
KMIA 070253Z 35003KT 10SM FEW150 SCT250 28/24 A3009 RMK AO2 SLP190 T02780239 53010
KMIA 070353Z 00000KT 10SM SCT250 27/24 A3009 RMK AO2 SLP189 T02720239
KMIA 070453Z 35003KT 10SM FEW025 FEW150 BKN250 27/24 A3009 RMK AO2 SLP188 T02720244 403280250
KMIA 070553Z 35003KT 10SM FEW025 SCT250 28/24 A3007 RMK AO2 LTG DSNT NE SLP183 CB DSNT NE-E T02830239 10289 20267 58007
KMIA 070653Z 36003KT 10SM FEW025 BKN250 28/24 A3005 RMK AO2 SLP176 T02830239
KMIA 070753Z 00000KT 10SM FEW025 BKN250 27/24 A3004 RMK AO2 SLP171 T02720244
KMIA 070853Z 00000KT 10SM BKN250 27/24 A3004 RMK AO2 SLP172 T02720244 55011
KMIA 070953Z 00000KT 10SM FEW020 BKN250 27/24 A3005 RMK AO2 SLP176 T02720244
KMIA 071053Z 00000KT 10SM FEW020 SCT250 27/24 A3005 RMK AO2 SLP177 CB DSNT NE-SE-SW MOV W T02720244
KMIA 071153Z 00000KT 10SM FEW020 BKN250 28/25 A3007 RMK AO2 SLP182 CB DSNT E-SE AND SW MOV W 70041 T02830250 10283 20267 53010
KMIA 071253Z 00000KT 10SM FEW020 BKN250 31/26 A3008 RMK AO2 SLP187 CB DSNT E-S MOV W T03060256



Page loaded:  13:42 UTC  |   06:42 AM Pacific  |   07:42 AM Mountain  |   08:42 AM Central  |   09:42 AM Eastern

 

ADVISORIES

FORECASTS

FORECASTS

OBSERVATIONS

USER TOOLS

ABOUT US